sensor_id;sensor_type;location;lat;lon;timestamp;P1;durP1;ratioP1;P2;durP2;ratioP2
55316;SDS011;41178;48.956;8.130;2023-04-15T00:03:43;5.47;;;3.87;;
55316;SDS011;41178;48.956;8.130;2023-04-15T00:08:46;6.57;;;3.43;;
55316;SDS011;41178;48.956;8.130;2023-04-15T00:13:48;5.43;;;3.10;;
55316;SDS011;41178;48.956;8.130;2023-04-15T00:18:50;6.63;;;3.13;;
55316;SDS011;41178;48.956;8.130;2023-04-15T00:23:51;3.90;;;3.00;;
55316;SDS011;41178;48.956;8.130;2023-04-15T00:28:54;3.63;;;3.27;;
55316;SDS011;41178;48.956;8.130;2023-04-15T00:33:55;4.73;;;3.03;;
55316;SDS011;41178;48.956;8.130;2023-04-15T00:38:57;3.70;;;2.87;;
55316;SDS011;41178;48.956;8.130;2023-04-15T00:44:00;5.57;;;3.07;;
55316;SDS011;41178;48.956;8.130;2023-04-15T00:49:03;5.33;;;2.93;;
55316;SDS011;41178;48.956;8.130;2023-04-15T00:54:06;5.03;;;3.47;;
55316;SDS011;41178;48.956;8.130;2023-04-15T00:59:08;4.00;;;3.27;;
55316;SDS011;41178;48.956;8.130;2023-04-15T01:04:10;3.43;;;3.10;;
55316;SDS011;41178;48.956;8.130;2023-04-15T01:09:12;6.43;;;3.13;;
55316;SDS011;41178;48.956;8.130;2023-04-15T01:14:14;5.57;;;2.97;;
55316;SDS011;41178;48.956;8.130;2023-04-15T01:19:16;4.40;;;3.10;;
55316;SDS011;41178;48.956;8.130;2023-04-15T01:24:18;6.67;;;3.40;;
55316;SDS011;41178;48.956;8.130;2023-04-15T01:29:20;6.27;;;3.87;;
55316;SDS011;41178;48.956;8.130;2023-04-15T01:34:22;8.33;;;3.63;;
55316;SDS011;41178;48.956;8.130;2023-04-15T01:39:24;4.53;;;3.30;;
55316;SDS011;41178;48.956;8.130;2023-04-15T01:44:26;8.60;;;5.27;;
55316;SDS011;41178;48.956;8.130;2023-04-15T01:49:27;6.00;;;3.53;;
55316;SDS011;41178;48.956;8.130;2023-04-15T01:54:29;5.40;;;3.33;;
55316;SDS011;41178;48.956;8.130;2023-04-15T01:59:31;5.70;;;4.17;;
55316;SDS011;41178;48.956;8.130;2023-04-15T02:04:33;4.23;;;3.23;;
55316;SDS011;41178;48.956;8.130;2023-04-15T02:09:35;6.13;;;3.50;;
55316;SDS011;41178;48.956;8.130;2023-04-15T02:14:36;6.13;;;3.10;;
55316;SDS011;41178;48.956;8.130;2023-04-15T02:19:38;8.37;;;3.43;;
55316;SDS011;41178;48.956;8.130;2023-04-15T02:24:40;4.57;;;3.40;;
55316;SDS011;41178;48.956;8.130;2023-04-15T02:29:45;5.23;;;3.50;;
55316;SDS011;41178;48.956;8.130;2023-04-15T02:34:47;8.27;;;3.20;;
55316;SDS011;41178;48.956;8.130;2023-04-15T02:39:48;4.43;;;3.00;;
55316;SDS011;41178;48.956;8.130;2023-04-15T02:44:50;6.30;;;3.23;;
55316;SDS011;41178;48.956;8.130;2023-04-15T02:49:52;5.03;;;3.03;;
55316;SDS011;41178;48.956;8.130;2023-04-15T02:54:53;5.57;;;3.60;;
55316;SDS011;41178;48.956;8.130;2023-04-15T03:00:00;5.07;;;4.07;;
55316;SDS011;41178;48.956;8.130;2023-04-15T03:05:02;6.53;;;3.67;;
55316;SDS011;41178;48.956;8.130;2023-04-15T03:10:04;7.40;;;3.80;;
55316;SDS011;41178;48.956;8.130;2023-04-15T03:15:07;5.50;;;4.17;;
55316;SDS011;41178;48.956;8.130;2023-04-15T03:20:10;5.00;;;3.60;;
55316;SDS011;41178;48.956;8.130;2023-04-15T03:25:12;4.57;;;3.40;;
55316;SDS011;41178;48.956;8.130;2023-04-15T03:30:13;6.13;;;3.77;;
55316;SDS011;41178;48.956;8.130;2023-04-15T03:35:15;7.67;;;4.00;;
55316;SDS011;41178;48.956;8.130;2023-04-15T03:40:17;6.10;;;4.17;;
55316;SDS011;41178;48.956;8.130;2023-04-15T03:45:19;7.93;;;4.07;;
55316;SDS011;41178;48.956;8.130;2023-04-15T03:50:20;5.47;;;3.90;;
55316;SDS011;41178;48.956;8.130;2023-04-15T03:55:22;6.03;;;3.83;;
55316;SDS011;41178;48.956;8.130;2023-04-15T04:00:24;6.33;;;4.00;;
55316;SDS011;41178;48.956;8.130;2023-04-15T04:05:25;6.50;;;4.47;;
55316;SDS011;41178;48.956;8.130;2023-04-15T04:10:27;6.10;;;4.33;;
55316;SDS011;41178;48.956;8.130;2023-04-15T04:15:28;9.13;;;4.30;;
55316;SDS011;41178;48.956;8.130;2023-04-15T04:20:30;6.23;;;4.40;;
55316;SDS011;41178;48.956;8.130;2023-04-15T04:25:32;6.17;;;4.33;;
55316;SDS011;41178;48.956;8.130;2023-04-15T04:30:34;6.93;;;4.20;;
55316;SDS011;41178;48.956;8.130;2023-04-15T04:35:36;6.23;;;4.23;;
55316;SDS011;41178;48.956;8.130;2023-04-15T04:40:38;5.43;;;3.40;;
55316;SDS011;41178;48.956;8.130;2023-04-15T04:45:40;5.47;;;4.17;;
55316;SDS011;41178;48.956;8.130;2023-04-15T04:50:42;6.60;;;3.80;;
55316;SDS011;41178;48.956;8.130;2023-04-15T04:55:45;5.27;;;4.10;;
55316;SDS011;41178;48.956;8.130;2023-04-15T05:00:47;6.73;;;4.07;;
55316;SDS011;41178;48.956;8.130;2023-04-15T05:05:48;5.90;;;3.97;;
55316;SDS011;41178;48.956;8.130;2023-04-15T05:10:50;5.33;;;3.87;;
55316;SDS011;41178;48.956;8.130;2023-04-15T05:15:52;6.60;;;3.83;;
55316;SDS011;41178;48.956;8.130;2023-04-15T05:20:53;6.87;;;3.90;;
55316;SDS011;41178;48.956;8.130;2023-04-15T05:25:55;5.07;;;3.80;;
55316;SDS011;41178;48.956;8.130;2023-04-15T05:30:57;5.83;;;3.80;;
55316;SDS011;41178;48.956;8.130;2023-04-15T05:35:59;6.00;;;3.77;;
55316;SDS011;41178;48.956;8.130;2023-04-15T05:41:00;5.50;;;3.27;;
55316;SDS011;41178;48.956;8.130;2023-04-15T05:46:02;5.60;;;4.13;;
55316;SDS011;41178;48.956;8.130;2023-04-15T05:51:04;7.20;;;3.93;;
55316;SDS011;41178;48.956;8.130;2023-04-15T05:56:06;4.70;;;3.83;;
55316;SDS011;41178;48.956;8.130;2023-04-15T06:01:08;7.03;;;3.53;;
55316;SDS011;41178;48.956;8.130;2023-04-15T06:06:10;5.63;;;3.50;;
55316;SDS011;41178;48.956;8.130;2023-04-15T06:11:11;6.20;;;3.40;;
55316;SDS011;41178;48.956;8.130;2023-04-15T06:16:13;5.57;;;3.87;;
55316;SDS011;41178;48.956;8.130;2023-04-15T06:21:15;5.53;;;3.73;;
55316;SDS011;41178;48.956;8.130;2023-04-15T06:26:16;5.17;;;3.40;;
55316;SDS011;41178;48.956;8.130;2023-04-15T06:31:18;7.33;;;4.33;;
55316;SDS011;41178;48.956;8.130;2023-04-15T06:36:20;4.37;;;3.90;;
55316;SDS011;41178;48.956;8.130;2023-04-15T06:41:22;7.60;;;4.23;;
55316;SDS011;41178;48.956;8.130;2023-04-15T06:46:24;8.47;;;4.27;;
55316;SDS011;41178;48.956;8.130;2023-04-15T06:51:26;6.87;;;3.70;;
55316;SDS011;41178;48.956;8.130;2023-04-15T06:56:28;5.30;;;4.50;;
55316;SDS011;41178;48.956;8.130;2023-04-15T07:01:29;5.20;;;3.93;;
55316;SDS011;41178;48.956;8.130;2023-04-15T07:06:31;5.97;;;3.60;;
55316;SDS011;41178;48.956;8.130;2023-04-15T07:11:34;5.13;;;3.70;;
55316;SDS011;41178;48.956;8.130;2023-04-15T07:16:36;5.17;;;3.67;;
55316;SDS011;41178;48.956;8.130;2023-04-15T07:21:38;4.10;;;3.67;;
55316;SDS011;41178;48.956;8.130;2023-04-15T07:26:42;3.87;;;3.23;;
55316;SDS011;41178;48.956;8.130;2023-04-15T07:31:44;7.17;;;3.57;;
55316;SDS011;41178;48.956;8.130;2023-04-15T07:36:46;4.27;;;3.40;;
55316;SDS011;41178;48.956;8.130;2023-04-15T07:41:52;6.40;;;3.70;;
55316;SDS011;41178;48.956;8.130;2023-04-15T07:46:54;8.50;;;4.00;;
55316;SDS011;41178;48.956;8.130;2023-04-15T07:51:56;9.40;;;3.70;;
55316;SDS011;41178;48.956;8.130;2023-04-15T07:56:58;4.23;;;3.40;;
55316;SDS011;41178;48.956;8.130;2023-04-15T08:01:59;3.20;;;2.90;;
55316;SDS011;41178;48.956;8.130;2023-04-15T08:07:01;5.50;;;3.20;;
55316;SDS011;41178;48.956;8.130;2023-04-15T08:12:04;3.70;;;3.30;;
55316;SDS011;41178;48.956;8.130;2023-04-15T08:17:06;6.27;;;3.87;;
55316;SDS011;41178;48.956;8.130;2023-04-15T08:22:09;3.37;;;2.77;;
55316;SDS011;41178;48.956;8.130;2023-04-15T08:27:18;3.43;;;2.83;;
55316;SDS011;41178;48.956;8.130;2023-04-15T08:32:20;3.63;;;2.97;;
55316;SDS011;41178;48.956;8.130;2023-04-15T08:37:22;5.83;;;2.90;;
55316;SDS011;41178;48.956;8.130;2023-04-15T08:42:29;6.43;;;3.13;;
55316;SDS011;41178;48.956;8.130;2023-04-15T08:47:35;5.67;;;3.67;;
55316;SDS011;41178;48.956;8.130;2023-04-15T08:52:39;9.60;;;3.77;;
55316;SDS011;41178;48.956;8.130;2023-04-15T08:57:40;4.83;;;3.90;;
55316;SDS011;41178;48.956;8.130;2023-04-15T09:02:42;7.77;;;3.10;;
55316;SDS011;41178;48.956;8.130;2023-04-15T09:07:44;5.03;;;3.33;;
55316;SDS011;41178;48.956;8.130;2023-04-15T09:12:46;7.03;;;3.30;;
55316;SDS011;41178;48.956;8.130;2023-04-15T09:17:47;5.80;;;3.10;;
55316;SDS011;41178;48.956;8.130;2023-04-15T09:22:49;5.23;;;3.20;;
55316;SDS011;41178;48.956;8.130;2023-04-15T09:27:56;4.20;;;3.17;;
55316;SDS011;41178;48.956;8.130;2023-04-15T09:33:00;4.27;;;2.87;;
55316;SDS011;41178;48.956;8.130;2023-04-15T09:38:05;8.47;;;3.00;;
55316;SDS011;41178;48.956;8.130;2023-04-15T09:43:09;4.43;;;3.20;;
55316;SDS011;41178;48.956;8.130;2023-04-15T09:48:17;4.87;;;3.07;;
55316;SDS011;41178;48.956;8.130;2023-04-15T09:53:29;4.17;;;2.73;;
55316;SDS011;41178;48.956;8.130;2023-04-15T09:58:34;23.63;;;3.90;;
55316;SDS011;41178;48.956;8.130;2023-04-15T10:03:38;18.57;;;3.37;;
55316;SDS011;41178;48.956;8.130;2023-04-15T10:08:42;7.73;;;3.63;;
55316;SDS011;41178;48.956;8.130;2023-04-15T10:13:44;6.07;;;2.80;;
55316;SDS011;41178;48.956;8.130;2023-04-15T10:18:50;150.13;;;13.07;;
55316;SDS011;41178;48.956;8.130;2023-04-15T10:23:55;69.17;;;7.67;;
55316;SDS011;41178;48.956;8.130;2023-04-15T10:28:58;114.23;;;12.73;;
55316;SDS011;41178;48.956;8.130;2023-04-15T10:34:01;26.90;;;4.37;;
55316;SDS011;41178;48.956;8.130;2023-04-15T10:39:52;15.37;;;3.50;;
55316;SDS011;41178;48.956;8.130;2023-04-15T10:44:35;78.70;;;7.43;;
55316;SDS011;41178;48.956;8.130;2023-04-15T10:49:42;4.77;;;2.40;;
55316;SDS011;41178;48.956;8.130;2023-04-15T10:54:45;7.60;;;3.07;;
55316;SDS011;41178;48.956;8.130;2023-04-15T11:06:50;5.00;;;3.33;;
55316;SDS011;41178;48.956;8.130;2023-04-15T11:12:06;5.43;;;3.20;;
55316;SDS011;41178;48.956;8.130;2023-04-15T11:17:09;4.23;;;2.47;;
55316;SDS011;41178;48.956;8.130;2023-04-15T11:22:11;5.43;;;2.90;;
55316;SDS011;41178;48.956;8.130;2023-04-15T11:27:22;21.27;;;4.03;;
55316;SDS011;41178;48.956;8.130;2023-04-15T11:32:24;13.20;;;3.53;;
55316;SDS011;41178;48.956;8.130;2023-04-15T11:37:27;153.20;;;14.23;;
55316;SDS011;41178;48.956;8.130;2023-04-15T11:42:32;6.10;;;3.33;;
55316;SDS011;41178;48.956;8.130;2023-04-15T11:47:49;3.53;;;2.40;;
55316;SDS011;41178;48.956;8.130;2023-04-15T11:52:58;5.03;;;2.70;;
55316;SDS011;41178;48.956;8.130;2023-04-15T11:58:15;8.17;;;2.70;;
55316;SDS011;41178;48.956;8.130;2023-04-15T12:13:49;3.40;;;2.40;;
55316;SDS011;41178;48.956;8.130;2023-04-15T12:18:52;4.70;;;2.43;;
55316;SDS011;41178;48.956;8.130;2023-04-15T12:24:00;4.53;;;3.07;;
55316;SDS011;41178;48.956;8.130;2023-04-15T12:29:05;5.07;;;3.23;;
55316;SDS011;41178;48.956;8.130;2023-04-15T12:34:08;3.30;;;2.77;;
55316;SDS011;41178;48.956;8.130;2023-04-15T12:39:10;6.07;;;3.27;;
55316;SDS011;41178;48.956;8.130;2023-04-15T12:44:12;3.93;;;2.87;;
55316;SDS011;41178;48.956;8.130;2023-04-15T12:49:13;5.80;;;3.07;;
55316;SDS011;41178;48.956;8.130;2023-04-15T12:54:16;6.73;;;2.67;;
55316;SDS011;41178;48.956;8.130;2023-04-15T12:59:19;3.93;;;2.63;;
55316;SDS011;41178;48.956;8.130;2023-04-15T13:04:21;3.87;;;2.80;;
55316;SDS011;41178;48.956;8.130;2023-04-15T13:09:23;7.03;;;3.27;;
55316;SDS011;41178;48.956;8.130;2023-04-15T13:14:25;7.80;;;3.50;;
55316;SDS011;41178;48.956;8.130;2023-04-15T13:19:27;4.53;;;2.37;;
55316;SDS011;41178;48.956;8.130;2023-04-15T13:24:29;4.10;;;2.50;;
55316;SDS011;41178;48.956;8.130;2023-04-15T13:29:30;4.70;;;2.63;;
55316;SDS011;41178;48.956;8.130;2023-04-15T13:34:32;5.47;;;3.17;;
55316;SDS011;41178;48.956;8.130;2023-04-15T13:39:34;5.30;;;2.70;;
55316;SDS011;41178;48.956;8.130;2023-04-15T13:44:36;5.17;;;2.87;;
55316;SDS011;41178;48.956;8.130;2023-04-15T13:49:38;5.07;;;3.03;;
55316;SDS011;41178;48.956;8.130;2023-04-15T13:54:40;4.40;;;3.07;;
55316;SDS011;41178;48.956;8.130;2023-04-15T13:59:42;7.27;;;2.87;;
55316;SDS011;41178;48.956;8.130;2023-04-15T14:04:44;3.30;;;2.73;;
55316;SDS011;41178;48.956;8.130;2023-04-15T14:09:46;3.70;;;3.03;;
55316;SDS011;41178;48.956;8.130;2023-04-15T14:14:48;3.80;;;2.67;;
55316;SDS011;41178;48.956;8.130;2023-04-15T14:19:50;6.53;;;4.03;;
55316;SDS011;41178;48.956;8.130;2023-04-15T14:24:51;4.87;;;4.30;;
55316;SDS011;41178;48.956;8.130;2023-04-15T14:29:54;4.20;;;3.47;;
55316;SDS011;41178;48.956;8.130;2023-04-15T14:34:58;4.60;;;3.10;;
55316;SDS011;41178;48.956;8.130;2023-04-15T14:39:59;4.20;;;3.40;;
55316;SDS011;41178;48.956;8.130;2023-04-15T14:45:01;3.40;;;2.90;;
55316;SDS011;41178;48.956;8.130;2023-04-15T14:50:03;4.93;;;2.97;;
55316;SDS011;41178;48.956;8.130;2023-04-15T14:55:06;4.77;;;2.60;;
55316;SDS011;41178;48.956;8.130;2023-04-15T15:00:10;3.93;;;3.40;;
55316;SDS011;41178;48.956;8.130;2023-04-15T15:05:16;4.87;;;3.13;;
55316;SDS011;41178;48.956;8.130;2023-04-15T15:10:18;3.27;;;2.43;;
55316;SDS011;41178;48.956;8.130;2023-04-15T15:15:40;3.53;;;2.40;;
55316;SDS011;41178;48.956;8.130;2023-04-15T15:20:42;3.50;;;2.50;;
55316;SDS011;41178;48.956;8.130;2023-04-15T15:25:44;5.63;;;2.50;;
55316;SDS011;41178;48.956;8.130;2023-04-15T15:30:46;3.53;;;2.63;;
55316;SDS011;41178;48.956;8.130;2023-04-15T15:35:48;2.73;;;2.23;;
55316;SDS011;41178;48.956;8.130;2023-04-15T15:40:51;3.87;;;2.00;;
55316;SDS011;41178;48.956;8.130;2023-04-15T15:45:53;3.00;;;1.80;;
55316;SDS011;41178;48.956;8.130;2023-04-15T15:50:55;3.87;;;1.77;;
55316;SDS011;41178;48.956;8.130;2023-04-15T15:55:57;1.73;;;1.63;;
55316;SDS011;41178;48.956;8.130;2023-04-15T16:00:59;2.57;;;1.60;;
55316;SDS011;41178;48.956;8.130;2023-04-15T16:06:02;2.10;;;1.87;;
55316;SDS011;41178;48.956;8.130;2023-04-15T16:11:04;3.33;;;1.70;;
55316;SDS011;41178;48.956;8.130;2023-04-15T16:16:06;1.60;;;1.50;;
55316;SDS011;41178;48.956;8.130;2023-04-15T16:21:08;22.03;;;3.07;;
55316;SDS011;41178;48.956;8.130;2023-04-15T16:26:10;1.60;;;1.50;;
55316;SDS011;41178;48.956;8.130;2023-04-15T16:31:12;2.70;;;1.77;;
55316;SDS011;41178;48.956;8.130;2023-04-15T16:36:13;1.90;;;1.70;;
55316;SDS011;41178;48.956;8.130;2023-04-15T16:41:15;2.87;;;1.80;;
55316;SDS011;41178;48.956;8.130;2023-04-15T16:46:18;2.03;;;1.83;;
55316;SDS011;41178;48.956;8.130;2023-04-15T16:51:20;1.83;;;1.73;;
55316;SDS011;41178;48.956;8.130;2023-04-15T16:56:22;2.03;;;1.93;;
55316;SDS011;41178;48.956;8.130;2023-04-15T17:01:24;2.10;;;2.00;;
55316;SDS011;41178;48.956;8.130;2023-04-15T17:06:26;2.13;;;2.03;;
55316;SDS011;41178;48.956;8.130;2023-04-15T17:11:28;1.87;;;1.77;;
55316;SDS011;41178;48.956;8.130;2023-04-15T17:16:29;1.83;;;1.73;;
55316;SDS011;41178;48.956;8.130;2023-04-15T17:21:31;1.80;;;1.70;;
55316;SDS011;41178;48.956;8.130;2023-04-15T17:26:34;1.93;;;1.77;;
55316;SDS011;41178;48.956;8.130;2023-04-15T17:31:36;3.00;;;2.20;;
55316;SDS011;41178;48.956;8.130;2023-04-15T17:36:38;2.17;;;1.93;;
55316;SDS011;41178;48.956;8.130;2023-04-15T17:41:40;2.03;;;1.93;;
55316;SDS011;41178;48.956;8.130;2023-04-15T17:46:42;2.50;;;2.30;;
55316;SDS011;41178;48.956;8.130;2023-04-15T17:51:43;2.30;;;2.20;;
55316;SDS011;41178;48.956;8.130;2023-04-15T17:56:46;2.50;;;2.30;;
55316;SDS011;41178;48.956;8.130;2023-04-15T18:01:49;2.10;;;2.00;;
55316;SDS011;41178;48.956;8.130;2023-04-15T18:06:51;2.50;;;2.30;;
55316;SDS011;41178;48.956;8.130;2023-04-15T18:11:53;3.80;;;2.33;;
55316;SDS011;41178;48.956;8.130;2023-04-15T18:16:54;2.40;;;2.20;;
55316;SDS011;41178;48.956;8.130;2023-04-15T18:21:56;2.90;;;2.40;;
55316;SDS011;41178;48.956;8.130;2023-04-15T18:27:00;2.53;;;2.33;;
55316;SDS011;41178;48.956;8.130;2023-04-15T18:32:02;2.90;;;2.70;;
55316;SDS011;41178;48.956;8.130;2023-04-15T18:37:04;2.93;;;2.63;;
55316;SDS011;41178;48.956;8.130;2023-04-15T18:42:06;3.73;;;3.37;;
55316;SDS011;41178;48.956;8.130;2023-04-15T18:47:08;3.00;;;2.80;;
55316;SDS011;41178;48.956;8.130;2023-04-15T18:52:10;2.80;;;2.60;;
55316;SDS011;41178;48.956;8.130;2023-04-15T18:57:11;2.90;;;2.70;;
55316;SDS011;41178;48.956;8.130;2023-04-15T19:02:16;4.00;;;3.60;;
55316;SDS011;41178;48.956;8.130;2023-04-15T19:07:18;3.03;;;2.83;;
55316;SDS011;41178;48.956;8.130;2023-04-15T19:12:20;3.50;;;3.20;;
55316;SDS011;41178;48.956;8.130;2023-04-15T19:17:22;3.10;;;2.90;;
55316;SDS011;41178;48.956;8.130;2023-04-15T19:22:23;3.97;;;3.13;;
55316;SDS011;41178;48.956;8.130;2023-04-15T19:27:25;3.50;;;3.20;;
55316;SDS011;41178;48.956;8.130;2023-04-15T19:32:27;3.80;;;3.50;;
55316;SDS011;41178;48.956;8.130;2023-04-15T19:37:29;3.70;;;3.40;;
55316;SDS011;41178;48.956;8.130;2023-04-15T19:42:30;4.07;;;3.77;;
55316;SDS011;41178;48.956;8.130;2023-04-15T19:47:32;4.73;;;3.73;;
55316;SDS011;41178;48.956;8.130;2023-04-15T19:52:35;4.90;;;4.50;;
55316;SDS011;41178;48.956;8.130;2023-04-15T19:57:36;4.00;;;3.70;;
55316;SDS011;41178;48.956;8.130;2023-04-15T20:02:38;4.00;;;3.70;;
55316;SDS011;41178;48.956;8.130;2023-04-15T20:07:40;4.57;;;4.17;;
55316;SDS011;41178;48.956;8.130;2023-04-15T20:12:42;4.23;;;3.83;;
55316;SDS011;41178;48.956;8.130;2023-04-15T20:17:52;4.27;;;3.87;;
55316;SDS011;41178;48.956;8.130;2023-04-15T20:22:54;6.80;;;6.10;;
55316;SDS011;41178;48.956;8.130;2023-04-15T20:27:56;5.40;;;4.90;;
55316;SDS011;41178;48.956;8.130;2023-04-15T20:33:01;5.60;;;5.10;;
55316;SDS011;41178;48.956;8.130;2023-04-15T20:38:03;6.00;;;5.30;;
55316;SDS011;41178;48.956;8.130;2023-04-15T20:43:04;6.43;;;5.83;;
55316;SDS011;41178;48.956;8.130;2023-04-15T20:48:06;6.83;;;6.10;;
55316;SDS011;41178;48.956;8.130;2023-04-15T20:53:08;7.60;;;6.20;;
55316;SDS011;41178;48.956;8.130;2023-04-15T20:58:10;8.23;;;7.37;;
55316;SDS011;41178;48.956;8.130;2023-04-15T21:03:12;8.03;;;7.23;;
55316;SDS011;41178;48.956;8.130;2023-04-15T21:08:14;8.40;;;7.60;;
55316;SDS011;41178;48.956;8.130;2023-04-15T21:13:15;9.60;;;8.60;;
55316;SDS011;41178;48.956;8.130;2023-04-15T21:18:18;10.07;;;9.00;;
55316;SDS011;41178;48.956;8.130;2023-04-15T21:23:20;10.97;;;9.87;;
55316;SDS011;41178;48.956;8.130;2023-04-15T21:28:22;11.63;;;10.43;;
55316;SDS011;41178;48.956;8.130;2023-04-15T21:33:24;12.13;;;10.93;;
55316;SDS011;41178;48.956;8.130;2023-04-15T21:38:26;12.77;;;11.47;;
55316;SDS011;41178;48.956;8.130;2023-04-15T21:43:28;12.80;;;11.50;;
55316;SDS011;41178;48.956;8.130;2023-04-15T21:48:30;13.67;;;12.33;;
55316;SDS011;41178;48.956;8.130;2023-04-15T21:53:32;13.93;;;12.53;;
55316;SDS011;41178;48.956;8.130;2023-04-15T21:58:33;12.63;;;11.33;;
55316;SDS011;41178;48.956;8.130;2023-04-15T22:03:35;13.03;;;11.80;;
55316;SDS011;41178;48.956;8.130;2023-04-15T22:08:37;13.53;;;12.13;;
55316;SDS011;41178;48.956;8.130;2023-04-15T22:13:53;13.60;;;12.20;;
55316;SDS011;41178;48.956;8.130;2023-04-15T22:18:54;17.20;;;15.23;;
55316;SDS011;41178;48.956;8.130;2023-04-15T22:23:56;14.60;;;13.20;;
55316;SDS011;41178;48.956;8.130;2023-04-15T22:29:18;14.57;;;12.90;;
55316;SDS011;41178;48.956;8.130;2023-04-15T22:34:20;12.90;;;11.60;;
55316;SDS011;41178;48.956;8.130;2023-04-15T22:39:22;13.23;;;11.97;;
55316;SDS011;41178;48.956;8.130;2023-04-15T22:44:23;13.73;;;12.37;;
55316;SDS011;41178;48.956;8.130;2023-04-15T22:49:25;12.97;;;11.67;;
55316;SDS011;41178;48.956;8.130;2023-04-15T22:54:27;12.80;;;11.50;;
55316;SDS011;41178;48.956;8.130;2023-04-15T22:59:29;12.30;;;11.00;;
55316;SDS011;41178;48.956;8.130;2023-04-15T23:04:31;12.40;;;11.10;;
55316;SDS011;41178;48.956;8.130;2023-04-15T23:09:33;12.50;;;11.20;;
55316;SDS011;41178;48.956;8.130;2023-04-15T23:14:34;11.33;;;10.23;;
55316;SDS011;41178;48.956;8.130;2023-04-15T23:19:36;11.57;;;10.33;;
55316;SDS011;41178;48.956;8.130;2023-04-15T23:24:37;12.63;;;11.30;;
55316;SDS011;41178;48.956;8.130;2023-04-15T23:29:39;13.47;;;10.77;;
55316;SDS011;41178;48.956;8.130;2023-04-15T23:34:41;13.67;;;12.33;;
55316;SDS011;41178;48.956;8.130;2023-04-15T23:39:42;11.80;;;10.57;;
55316;SDS011;41178;48.956;8.130;2023-04-15T23:44:44;13.13;;;11.73;;
55316;SDS011;41178;48.956;8.130;2023-04-15T23:49:46;12.50;;;11.23;;
55316;SDS011;41178;48.956;8.130;2023-04-15T23:54:48;12.60;;;11.30;;
55316;SDS011;41178;48.956;8.130;2023-04-15T23:59:49;12.63;;;11.33;;
